<?xml version="1.0" encoding="UTF-8"?>
<gpx version="1.1" creator="Endomondo.com" xsi:schemaLocation="http://www.topografix.com/GPX/1/1 http://www.topografix.com/GPX/1/1/gpx.xsd http://www.garmin.com/xmlschemas/GpxExtensions/v3 http://www.garmin.com/xmlschemas/GpxExtensionsv3.xsd http://www.garmin.com/xmlschemas/TrackPointExtension/v1 http://www.garmin.com/xmlschemas/TrackPointExtensionv1.xsd" xmlns="http://www.topografix.com/GPX/1/1" xmlns:gpxtpx="http://www.garmin.com/xmlschemas/TrackPointExtension/v1" xmlns:gpxx="http://www.garmin.com/xmlschemas/GpxExtensions/v3" xmlns:xsi="http://www.w3.org/2001/XMLSchema-instance">
  <metadata>
    <author>
      <name>jose manuel</name>
      <email id="jmanuelguerrero" domain="gmail.com"/>
    </author>
    <link href="http://www.endomondo.com">
      <text>Endomondo</text>
    </link>
    <time>2016-08-24T09:34:41Z</time>
  </metadata>
  <trk>
    <src>http://www.endomondo.com/</src>
    <link href="https://www.endomondo.com/workouts/713347489/159315">
      <text>endomondo</text>
    </link>
    <type>HIKING</type>
    <trkseg>
      <trkpt lat="42.8742256" lon="-5.3741912">
        <time>2016-04-25T17:42:37Z</time>
      </trkpt>
      <trkpt lat="42.8742256" lon="-5.3741912">
        <ele>1571.4</ele>
        <time>2016-04-25T17:42:41Z</time>
      </trkpt>
      <trkpt lat="42.8742504" lon="-5.3742555">
        <ele>1569.0</ele>
        <time>2016-04-25T17:47:54Z</time>
      </trkpt>
      <trkpt lat="42.8742507" lon="-5.3743326">
        <ele>1569.0</ele>
        <time>2016-04-25T17:47:58Z</time>
      </trkpt>
      <trkpt lat="42.8742343" lon="-5.3744346">
        <ele>1569.0</ele>
        <time>2016-04-25T17:48:00Z</time>
      </trkpt>
      <trkpt lat="42.8742051" lon="-5.3746642">
        <ele>1568.9</ele>
        <time>2016-04-25T17:48:03Z</time>
      </trkpt>
      <trkpt lat="42.8741572" lon="-5.3748449">
        <ele>1568.9</ele>
        <time>2016-04-25T17:48:05Z</time>
      </trkpt>
      <trkpt lat="42.8741428" lon="-5.3750542">
        <ele>1568.9</ele>
        <time>2016-04-25T17:48:07Z</time>
      </trkpt>
      <trkpt lat="42.8741132" lon="-5.3753113">
        <ele>1568.9</ele>
        <time>2016-04-25T17:48:10Z</time>
      </trkpt>
      <trkpt lat="42.8741004" lon="-5.3755027">
        <ele>1568.9</ele>
        <time>2016-04-25T17:48:12Z</time>
      </trkpt>
      <trkpt lat="42.8740963" lon="-5.3757411">
        <ele>1568.8</ele>
        <time>2016-04-25T17:48:15Z</time>
      </trkpt>
      <trkpt lat="42.8740565" lon="-5.3759369">
        <ele>1568.8</ele>
        <time>2016-04-25T17:48:17Z</time>
      </trkpt>
      <trkpt lat="42.87401" lon="-5.3761397">
        <ele>1568.7</ele>
        <time>2016-04-25T17:48:19Z</time>
      </trkpt>
      <trkpt lat="42.8739763" lon="-5.3763219">
        <ele>1568.7</ele>
        <time>2016-04-25T17:48:21Z</time>
      </trkpt>
      <trkpt lat="42.8739724" lon="-5.376519">
        <ele>1568.7</ele>
        <time>2016-04-25T17:48:23Z</time>
      </trkpt>
      <trkpt lat="42.8740017" lon="-5.3767238">
        <ele>1568.7</ele>
        <time>2016-04-25T17:48:25Z</time>
      </trkpt>
      <trkpt lat="42.8740381" lon="-5.3770013">
        <ele>1568.2</ele>
        <time>2016-04-25T17:48:28Z</time>
      </trkpt>
      <trkpt lat="42.8740547" lon="-5.3771934">
        <ele>1567.5</ele>
        <time>2016-04-25T17:48:30Z</time>
      </trkpt>
      <trkpt lat="42.8740996" lon="-5.3774537">
        <ele>1566.4</ele>
        <time>2016-04-25T17:48:33Z</time>
      </trkpt>
      <trkpt lat="42.874109" lon="-5.3776603">
        <ele>1564.2</ele>
        <time>2016-04-25T17:48:35Z</time>
      </trkpt>
      <trkpt lat="42.8740747" lon="-5.3778509">
        <ele>1562.0</ele>
        <time>2016-04-25T17:48:37Z</time>
      </trkpt>
      <trkpt lat="42.8740298" lon="-5.3780738">
        <ele>1559.7</ele>
        <time>2016-04-25T17:48:40Z</time>
      </trkpt>
      <trkpt lat="42.8740042" lon="-5.3783197">
        <ele>1558.1</ele>
        <time>2016-04-25T17:48:43Z</time>
      </trkpt>
      <trkpt lat="42.8739618" lon="-5.3784998">
        <ele>1557.6</ele>
        <time>2016-04-25T17:48:45Z</time>
      </trkpt>
      <trkpt lat="42.8739362" lon="-5.378704">
        <ele>1555.7</ele>
        <time>2016-04-25T17:48:48Z</time>
      </trkpt>
      <trkpt lat="42.8738873" lon="-5.3789712">
        <ele>1554.6</ele>
        <time>2016-04-25T17:48:51Z</time>
      </trkpt>
      <trkpt lat="42.8738363" lon="-5.3791901">
        <ele>1553.3</ele>
        <time>2016-04-25T17:48:54Z</time>
      </trkpt>
      <trkpt lat="42.8737573" lon="-5.3793899">
        <ele>1552.4</ele>
        <time>2016-04-25T17:48:57Z</time>
      </trkpt>
      <trkpt lat="42.873645" lon="-5.3795929">
        <ele>1550.4</ele>
        <time>2016-04-25T17:49:00Z</time>
      </trkpt>
      <trkpt lat="42.8735071" lon="-5.3797847">
        <ele>1548.7</ele>
        <time>2016-04-25T17:49:03Z</time>
      </trkpt>
      <trkpt lat="42.8733617" lon="-5.3799466">
        <ele>1545.3</ele>
        <time>2016-04-25T17:49:06Z</time>
      </trkpt>
      <trkpt lat="42.8732008" lon="-5.3800784">
        <ele>1542.1</ele>
        <time>2016-04-25T17:49:09Z</time>
      </trkpt>
      <trkpt lat="42.8730734" lon="-5.3801592">
        <ele>1541.2</ele>
        <time>2016-04-25T17:49:11Z</time>
      </trkpt>
      <trkpt lat="42.8729671" lon="-5.380209">
        <ele>1537.0</ele>
        <time>2016-04-25T17:49:13Z</time>
      </trkpt>
      <trkpt lat="42.8729064" lon="-5.3802318">
        <ele>1537.0</ele>
        <time>2016-04-25T17:49:14Z</time>
      </trkpt>
      <trkpt lat="42.8728424" lon="-5.3802518">
        <ele>1537.0</ele>
        <time>2016-04-25T17:49:15Z</time>
      </trkpt>
      <trkpt lat="42.872782" lon="-5.3802663">
        <ele>1537.0</ele>
        <time>2016-04-25T17:49:16Z</time>
      </trkpt>
      <trkpt lat="42.8727233" lon="-5.3802749">
        <ele>1537.0</ele>
        <time>2016-04-25T17:49:17Z</time>
      </trkpt>
      <trkpt lat="42.8724837" lon="-5.3803308">
        <ele>1533.9</ele>
        <time>2016-04-25T17:49:21Z</time>
      </trkpt>
      <trkpt lat="42.8723172" lon="-5.3803742">
        <ele>1531.9</ele>
        <time>2016-04-25T17:49:24Z</time>
      </trkpt>
      <trkpt lat="42.8722039" lon="-5.3804534">
        <ele>1523.3</ele>
        <time>2016-04-25T17:49:26Z</time>
      </trkpt>
      <trkpt lat="42.8721398" lon="-5.3804788">
        <ele>1523.3</ele>
        <time>2016-04-25T17:49:27Z</time>
      </trkpt>
      <trkpt lat="42.8720661" lon="-5.3805052">
        <ele>1523.3</ele>
        <time>2016-04-25T17:49:28Z</time>
      </trkpt>
      <trkpt lat="42.8719963" lon="-5.3805213">
        <ele>1523.3</ele>
        <time>2016-04-25T17:49:29Z</time>
      </trkpt>
      <trkpt lat="42.8719343" lon="-5.3805357">
        <ele>1523.3</ele>
        <time>2016-04-25T17:49:30Z</time>
      </trkpt>
      <trkpt lat="42.871684" lon="-5.3805642">
        <ele>1516.8</ele>
        <time>2016-04-25T17:49:34Z</time>
      </trkpt>
      <trkpt lat="42.8713465" lon="-5.3805363">
        <ele>1511.3</ele>
        <time>2016-04-25T17:49:39Z</time>
      </trkpt>
      <trkpt lat="42.8712033" lon="-5.3805021">
        <ele>1508.2</ele>
        <time>2016-04-25T17:49:41Z</time>
      </trkpt>
      <trkpt lat="42.8710468" lon="-5.3804948">
        <ele>1506.5</ele>
        <time>2016-04-25T17:49:43Z</time>
      </trkpt>
      <trkpt lat="42.8708365" lon="-5.3804561">
        <ele>1502.5</ele>
        <time>2016-04-25T17:49:46Z</time>
      </trkpt>
      <trkpt lat="42.8706256" lon="-5.3804389">
        <ele>1499.1</ele>
        <time>2016-04-25T17:49:49Z</time>
      </trkpt>
      <trkpt lat="42.8704672" lon="-5.3804126">
        <ele>1496.9</ele>
        <time>2016-04-25T17:49:51Z</time>
      </trkpt>
      <trkpt lat="42.8702349" lon="-5.3803216">
        <ele>1493.7</ele>
        <time>2016-04-25T17:49:54Z</time>
      </trkpt>
      <trkpt lat="42.8699585" lon="-5.3802139">
        <ele>1488.7</ele>
        <time>2016-04-25T17:49:58Z</time>
      </trkpt>
      <trkpt lat="42.8698246" lon="-5.3801633">
        <ele>1485.8</ele>
        <time>2016-04-25T17:50:00Z</time>
      </trkpt>
      <trkpt lat="42.8696651" lon="-5.3800854">
        <ele>1485.5</ele>
        <time>2016-04-25T17:50:02Z</time>
      </trkpt>
      <trkpt lat="42.8695165" lon="-5.3800246">
        <ele>1484.9</ele>
        <time>2016-04-25T17:50:04Z</time>
      </trkpt>
      <trkpt lat="42.869357" lon="-5.3799532">
        <ele>1484.9</ele>
        <time>2016-04-25T17:50:06Z</time>
      </trkpt>
      <trkpt lat="42.8692242" lon="-5.3798474">
        <ele>1483.0</ele>
        <time>2016-04-25T17:50:08Z</time>
      </trkpt>
      <trkpt lat="42.8690776" lon="-5.3797339">
        <ele>1481.9</ele>
        <time>2016-04-25T17:50:10Z</time>
      </trkpt>
      <trkpt lat="42.8687682" lon="-5.3795429">
        <ele>1479.4</ele>
        <time>2016-04-25T17:50:14Z</time>
      </trkpt>
      <trkpt lat="42.8686084" lon="-5.3794431">
        <ele>1478.8</ele>
        <time>2016-04-25T17:50:16Z</time>
      </trkpt>
      <trkpt lat="42.8685299" lon="-5.3793802">
        <ele>1478.5</ele>
        <time>2016-04-25T17:50:17Z</time>
      </trkpt>
      <trkpt lat="42.8683661" lon="-5.3792729">
        <ele>1478.1</ele>
        <time>2016-04-25T17:50:19Z</time>
      </trkpt>
      <trkpt lat="42.8682047" lon="-5.379151">
        <ele>1477.0</ele>
        <time>2016-04-25T17:50:21Z</time>
      </trkpt>
      <trkpt lat="42.868057" lon="-5.3790456">
        <ele>1475.9</ele>
        <time>2016-04-25T17:50:23Z</time>
      </trkpt>
      <trkpt lat="42.8679237" lon="-5.3789087">
        <ele>1475.6</ele>
        <time>2016-04-25T17:50:25Z</time>
      </trkpt>
      <trkpt lat="42.8677941" lon="-5.3787841">
        <ele>1475.1</ele>
        <time>2016-04-25T17:50:27Z</time>
      </trkpt>
      <trkpt lat="42.8676572" lon="-5.3786471">
        <ele>1474.1</ele>
        <time>2016-04-25T17:50:29Z</time>
      </trkpt>
      <trkpt lat="42.8675767" lon="-5.3785786">
        <ele>1473.2</ele>
        <time>2016-04-25T17:50:30Z</time>
      </trkpt>
      <trkpt lat="42.8674495" lon="-5.3784153">
        <ele>1472.5</ele>
        <time>2016-04-25T17:50:32Z</time>
      </trkpt>
      <trkpt lat="42.8673346" lon="-5.3782763">
        <ele>1471.8</ele>
        <time>2016-04-25T17:50:34Z</time>
      </trkpt>
      <trkpt lat="42.8672123" lon="-5.3781694">
        <ele>1470.6</ele>
        <time>2016-04-25T17:50:36Z</time>
      </trkpt>
      <trkpt lat="42.8671069" lon="-5.3780038">
        <ele>1469.2</ele>
        <time>2016-04-25T17:50:38Z</time>
      </trkpt>
      <trkpt lat="42.8670019" lon="-5.3778099">
        <ele>1468.6</ele>
        <time>2016-04-25T17:50:40Z</time>
      </trkpt>
      <trkpt lat="42.8668919" lon="-5.3776184">
        <ele>1467.3</ele>
        <time>2016-04-25T17:50:42Z</time>
      </trkpt>
      <trkpt lat="42.8668044" lon="-5.3774077">
        <ele>1465.6</ele>
        <time>2016-04-25T17:50:44Z</time>
      </trkpt>
      <trkpt lat="42.8667082" lon="-5.3772268">
        <ele>1464.2</ele>
        <time>2016-04-25T17:50:46Z</time>
      </trkpt>
      <trkpt lat="42.8666162" lon="-5.3770263">
        <ele>1462.9</ele>
        <time>2016-04-25T17:50:48Z</time>
      </trkpt>
      <trkpt lat="42.8665164" lon="-5.3768186">
        <ele>1461.6</ele>
        <time>2016-04-25T17:50:50Z</time>
      </trkpt>
      <trkpt lat="42.866453" lon="-5.3766232">
        <ele>1460.9</ele>
        <time>2016-04-25T17:50:52Z</time>
      </trkpt>
      <trkpt lat="42.8663772" lon="-5.3764425">
        <ele>1460.4</ele>
        <time>2016-04-25T17:50:54Z</time>
      </trkpt>
      <trkpt lat="42.8662511" lon="-5.3763215">
        <ele>1459.7</ele>
        <time>2016-04-25T17:50:56Z</time>
      </trkpt>
      <trkpt lat="42.866132" lon="-5.3762106">
        <ele>1458.7</ele>
        <time>2016-04-25T17:50:58Z</time>
      </trkpt>
      <trkpt lat="42.8659859" lon="-5.3761249">
        <ele>1456.8</ele>
        <time>2016-04-25T17:51:01Z</time>
      </trkpt>
      <trkpt lat="42.8656725" lon="-5.3758981">
        <ele>1453.3</ele>
        <time>2016-04-25T17:51:06Z</time>
      </trkpt>
      <trkpt lat="42.8655271" lon="-5.375787">
        <ele>1450.8</ele>
        <time>2016-04-25T17:51:09Z</time>
      </trkpt>
      <trkpt lat="42.8654073" lon="-5.3756271">
        <ele>1449.7</ele>
        <time>2016-04-25T17:51:11Z</time>
      </trkpt>
      <trkpt lat="42.865264" lon="-5.3755114">
        <ele>1448.3</ele>
        <time>2016-04-25T17:51:13Z</time>
      </trkpt>
      <trkpt lat="42.8651631" lon="-5.3753857">
        <ele>1447.8</ele>
        <time>2016-04-25T17:51:15Z</time>
      </trkpt>
      <trkpt lat="42.8650702" lon="-5.375236">
        <ele>1447.4</ele>
        <time>2016-04-25T17:51:17Z</time>
      </trkpt>
      <trkpt lat="42.8649543" lon="-5.3750827">
        <ele>1446.1</ele>
        <time>2016-04-25T17:51:19Z</time>
      </trkpt>
      <trkpt lat="42.8648373" lon="-5.3749168">
        <ele>1445.4</ele>
        <time>2016-04-25T17:51:21Z</time>
      </trkpt>
      <trkpt lat="42.8647298" lon="-5.3747479">
        <ele>1445.1</ele>
        <time>2016-04-25T17:51:23Z</time>
      </trkpt>
      <trkpt lat="42.8646135" lon="-5.37459">
        <ele>1444.6</ele>
        <time>2016-04-25T17:51:25Z</time>
      </trkpt>
      <trkpt lat="42.8645128" lon="-5.3744336">
        <ele>1442.6</ele>
        <time>2016-04-25T17:51:27Z</time>
      </trkpt>
      <trkpt lat="42.8644081" lon="-5.3742713">
        <ele>1440.7</ele>
        <time>2016-04-25T17:51:29Z</time>
      </trkpt>
      <trkpt lat="42.8643026" lon="-5.3740876">
        <ele>1438.7</ele>
        <time>2016-04-25T17:51:31Z</time>
      </trkpt>
      <trkpt lat="42.8641928" lon="-5.3739132">
        <ele>1434.9</ele>
        <time>2016-04-25T17:51:33Z</time>
      </trkpt>
      <trkpt lat="42.8640858" lon="-5.3737311">
        <ele>1430.8</ele>
        <time>2016-04-25T17:51:35Z</time>
      </trkpt>
      <trkpt lat="42.8640012" lon="-5.3735369">
        <ele>1428.3</ele>
        <time>2016-04-25T17:51:37Z</time>
      </trkpt>
      <trkpt lat="42.863925" lon="-5.3733439">
        <ele>1426.7</ele>
        <time>2016-04-25T17:51:39Z</time>
      </trkpt>
      <trkpt lat="42.8638346" lon="-5.3731447">
        <ele>1424.3</ele>
        <time>2016-04-25T17:51:41Z</time>
      </trkpt>
      <trkpt lat="42.863746" lon="-5.3729625">
        <ele>1420.1</ele>
        <time>2016-04-25T17:51:43Z</time>
      </trkpt>
      <trkpt lat="42.8636416" lon="-5.3728012">
        <ele>1417.9</ele>
        <time>2016-04-25T17:51:46Z</time>
      </trkpt>
      <trkpt lat="42.8635525" lon="-5.3726605">
        <ele>1417.0</ele>
        <time>2016-04-25T17:51:48Z</time>
      </trkpt>
      <trkpt lat="42.8634467" lon="-5.3725342">
        <ele>1414.8</ele>
        <time>2016-04-25T17:51:50Z</time>
      </trkpt>
      <trkpt lat="42.863323" lon="-5.3723743">
        <ele>1412.3</ele>
        <time>2016-04-25T17:51:52Z</time>
      </trkpt>
      <trkpt lat="42.8632106" lon="-5.3721855">
        <ele>1408.5</ele>
        <time>2016-04-25T17:51:54Z</time>
      </trkpt>
      <trkpt lat="42.8631139" lon="-5.371991">
        <ele>1405.9</ele>
        <time>2016-04-25T17:51:56Z</time>
      </trkpt>
      <trkpt lat="42.86302" lon="-5.3717813">
        <ele>1404.1</ele>
        <time>2016-04-25T17:51:58Z</time>
      </trkpt>
      <trkpt lat="42.8629517" lon="-5.371528">
        <ele>1403.0</ele>
        <time>2016-04-25T17:52:00Z</time>
      </trkpt>
      <trkpt lat="42.8629206" lon="-5.3712542">
        <ele>1400.9</ele>
        <time>2016-04-25T17:52:02Z</time>
      </trkpt>
      <trkpt lat="42.8628877" lon="-5.3709727">
        <ele>1399.0</ele>
        <time>2016-04-25T17:52:04Z</time>
      </trkpt>
      <trkpt lat="42.8628521" lon="-5.370691">
        <ele>1397.3</ele>
        <time>2016-04-25T17:52:06Z</time>
      </trkpt>
      <trkpt lat="42.8628274" lon="-5.3704215">
        <ele>1395.9</ele>
        <time>2016-04-25T17:52:08Z</time>
      </trkpt>
      <trkpt lat="42.8627973" lon="-5.3701449">
        <ele>1394.9</ele>
        <time>2016-04-25T17:52:10Z</time>
      </trkpt>
      <trkpt lat="42.8627712" lon="-5.3698596">
        <ele>1393.2</ele>
        <time>2016-04-25T17:52:12Z</time>
      </trkpt>
      <trkpt lat="42.8627397" lon="-5.3695835">
        <ele>1391.7</ele>
        <time>2016-04-25T17:52:14Z</time>
      </trkpt>
      <trkpt lat="42.8627018" lon="-5.3693218">
        <ele>1390.2</ele>
        <time>2016-04-25T17:52:16Z</time>
      </trkpt>
      <trkpt lat="42.8626696" lon="-5.3690444">
        <ele>1389.0</ele>
        <time>2016-04-25T17:52:18Z</time>
      </trkpt>
      <trkpt lat="42.8626423" lon="-5.3687568">
        <ele>1387.1</ele>
        <time>2016-04-25T17:52:20Z</time>
      </trkpt>
      <trkpt lat="42.8625897" lon="-5.3684941">
        <ele>1383.5</ele>
        <time>2016-04-25T17:52:22Z</time>
      </trkpt>
      <trkpt lat="42.8625242" lon="-5.3682349">
        <ele>1379.7</ele>
        <time>2016-04-25T17:52:24Z</time>
      </trkpt>
      <trkpt lat="42.8624802" lon="-5.3679569">
        <ele>1377.3</ele>
        <time>2016-04-25T17:52:26Z</time>
      </trkpt>
      <trkpt lat="42.8624308" lon="-5.3676907">
        <ele>1374.0</ele>
        <time>2016-04-25T17:52:28Z</time>
      </trkpt>
      <trkpt lat="42.8624025" lon="-5.3673975">
        <ele>1371.0</ele>
        <time>2016-04-25T17:52:30Z</time>
      </trkpt>
      <trkpt lat="42.8623902" lon="-5.3670909">
        <ele>1368.8</ele>
        <time>2016-04-25T17:52:32Z</time>
      </trkpt>
      <trkpt lat="42.8623945" lon="-5.3668013">
        <ele>1367.2</ele>
        <time>2016-04-25T17:52:34Z</time>
      </trkpt>
      <trkpt lat="42.8624" lon="-5.3665124">
        <ele>1365.8</ele>
        <time>2016-04-25T17:52:36Z</time>
      </trkpt>
      <trkpt lat="42.8624128" lon="-5.3661836">
        <ele>1365.1</ele>
        <time>2016-04-25T17:52:38Z</time>
      </trkpt>
      <trkpt lat="42.862433" lon="-5.365851">
        <ele>1363.7</ele>
        <time>2016-04-25T17:52:40Z</time>
      </trkpt>
      <trkpt lat="42.8624974" lon="-5.3655474">
        <ele>1362.2</ele>
        <time>2016-04-25T17:52:42Z</time>
      </trkpt>
      <trkpt lat="42.8625575" lon="-5.3652607">
        <ele>1360.9</ele>
        <time>2016-04-25T17:52:44Z</time>
      </trkpt>
      <trkpt lat="42.8626086" lon="-5.3649506">
        <ele>1359.0</ele>
        <time>2016-04-25T17:52:46Z</time>
      </trkpt>
      <trkpt lat="42.8626652" lon="-5.3646615">
        <ele>1356.7</ele>
        <time>2016-04-25T17:52:48Z</time>
      </trkpt>
      <trkpt lat="42.8627389" lon="-5.3643568">
        <ele>1353.5</ele>
        <time>2016-04-25T17:52:50Z</time>
      </trkpt>
      <trkpt lat="42.8628179" lon="-5.3640506">
        <ele>1349.8</ele>
        <time>2016-04-25T17:52:52Z</time>
      </trkpt>
      <trkpt lat="42.8628896" lon="-5.3637691">
        <ele>1345.7</ele>
        <time>2016-04-25T17:52:54Z</time>
      </trkpt>
      <trkpt lat="42.8629576" lon="-5.3634869">
        <ele>1342.5</ele>
        <time>2016-04-25T17:52:56Z</time>
      </trkpt>
      <trkpt lat="42.863035" lon="-5.3631742">
        <ele>1340.7</ele>
        <time>2016-04-25T17:52:58Z</time>
      </trkpt>
      <trkpt lat="42.8631168" lon="-5.3628797">
        <ele>1337.6</ele>
        <time>2016-04-25T17:53:00Z</time>
      </trkpt>
      <trkpt lat="42.8631832" lon="-5.3625619">
        <ele>1334.9</ele>
        <time>2016-04-25T17:53:02Z</time>
      </trkpt>
      <trkpt lat="42.8632627" lon="-5.3622296">
        <ele>1332.1</ele>
        <time>2016-04-25T17:53:04Z</time>
      </trkpt>
      <trkpt lat="42.8633284" lon="-5.3619268">
        <ele>1329.9</ele>
        <time>2016-04-25T17:53:06Z</time>
      </trkpt>
      <trkpt lat="42.8634215" lon="-5.3615991">
        <ele>1326.7</ele>
        <time>2016-04-25T17:53:08Z</time>
      </trkpt>
      <trkpt lat="42.8635358" lon="-5.3613024">
        <ele>1322.7</ele>
        <time>2016-04-25T17:53:10Z</time>
      </trkpt>
      <trkpt lat="42.8636183" lon="-5.3610203">
        <ele>1319.2</ele>
        <time>2016-04-25T17:53:12Z</time>
      </trkpt>
      <trkpt lat="42.8637177" lon="-5.3607253">
        <ele>1316.1</ele>
        <time>2016-04-25T17:53:14Z</time>
      </trkpt>
      <trkpt lat="42.8638158" lon="-5.3604485">
        <ele>1313.0</ele>
        <time>2016-04-25T17:53:16Z</time>
      </trkpt>
      <trkpt lat="42.8639047" lon="-5.3601759">
        <ele>1310.2</ele>
        <time>2016-04-25T17:53:18Z</time>
      </trkpt>
      <trkpt lat="42.8640237" lon="-5.3599078">
        <ele>1305.8</ele>
        <time>2016-04-25T17:53:20Z</time>
      </trkpt>
      <trkpt lat="42.8641057" lon="-5.3596316">
        <ele>1301.8</ele>
        <time>2016-04-25T17:53:22Z</time>
      </trkpt>
      <trkpt lat="42.8641682" lon="-5.3593606">
        <ele>1298.6</ele>
        <time>2016-04-25T17:53:24Z</time>
      </trkpt>
      <trkpt lat="42.8641983" lon="-5.3590631">
        <ele>1295.5</ele>
        <time>2016-04-25T17:53:26Z</time>
      </trkpt>
      <trkpt lat="42.8641917" lon="-5.3587605">
        <ele>1291.2</ele>
        <time>2016-04-25T17:53:28Z</time>
      </trkpt>
      <trkpt lat="42.8641736" lon="-5.3584776">
        <ele>1286.8</ele>
        <time>2016-04-25T17:53:30Z</time>
      </trkpt>
      <trkpt lat="42.8641475" lon="-5.3581686">
        <ele>1282.6</ele>
        <time>2016-04-25T17:53:32Z</time>
      </trkpt>
      <trkpt lat="42.8641305" lon="-5.3578639">
        <ele>1278.2</ele>
        <time>2016-04-25T17:53:34Z</time>
      </trkpt>
      <trkpt lat="42.8641523" lon="-5.3576057">
        <ele>1273.9</ele>
        <time>2016-04-25T17:53:36Z</time>
      </trkpt>
      <trkpt lat="42.8641671" lon="-5.357389">
        <ele>1270.6</ele>
        <time>2016-04-25T17:53:38Z</time>
      </trkpt>
      <trkpt lat="42.8641759" lon="-5.3571379">
        <ele>1268.1</ele>
        <time>2016-04-25T17:53:40Z</time>
      </trkpt>
      <trkpt lat="42.8642428" lon="-5.3568781">
        <ele>1265.8</ele>
        <time>2016-04-25T17:53:42Z</time>
      </trkpt>
      <trkpt lat="42.8642793" lon="-5.3566121">
        <ele>1263.2</ele>
        <time>2016-04-25T17:53:44Z</time>
      </trkpt>
      <trkpt lat="42.8643012" lon="-5.3563494">
        <ele>1260.5</ele>
        <time>2016-04-25T17:53:46Z</time>
      </trkpt>
      <trkpt lat="42.864252" lon="-5.3560945">
        <ele>1257.6</ele>
        <time>2016-04-25T17:53:48Z</time>
      </trkpt>
      <trkpt lat="42.8641489" lon="-5.3558735">
        <ele>1254.4</ele>
        <time>2016-04-25T17:53:50Z</time>
      </trkpt>
      <trkpt lat="42.863998" lon="-5.3557361">
        <ele>1252.1</ele>
        <time>2016-04-25T17:53:52Z</time>
      </trkpt>
      <trkpt lat="42.8638473" lon="-5.3556963">
        <ele>1249.3</ele>
        <time>2016-04-25T17:53:54Z</time>
      </trkpt>
      <trkpt lat="42.863437" lon="-5.3556115">
        <ele>1241.6</ele>
        <time>2016-04-25T17:53:59Z</time>
      </trkpt>
      <trkpt lat="42.863222" lon="-5.3555919">
        <ele>1239.6</ele>
        <time>2016-04-25T17:54:02Z</time>
      </trkpt>
      <trkpt lat="42.8630728" lon="-5.3556116">
        <ele>1237.8</ele>
        <time>2016-04-25T17:54:04Z</time>
      </trkpt>
      <trkpt lat="42.8629379" lon="-5.3556568">
        <ele>1236.8</ele>
        <time>2016-04-25T17:54:06Z</time>
      </trkpt>
      <trkpt lat="42.8628046" lon="-5.3557311">
        <ele>1236.3</ele>
        <time>2016-04-25T17:54:08Z</time>
      </trkpt>
      <trkpt lat="42.8624936" lon="-5.3559136">
        <ele>1234.5</ele>
        <time>2016-04-25T17:54:13Z</time>
      </trkpt>
      <trkpt lat="42.8623815" lon="-5.355997">
        <ele>1233.9</ele>
        <time>2016-04-25T17:54:15Z</time>
      </trkpt>
      <trkpt lat="42.8622731" lon="-5.3561075">
        <ele>1232.5</ele>
        <time>2016-04-25T17:54:17Z</time>
      </trkpt>
      <trkpt lat="42.8621308" lon="-5.3562318">
        <ele>1230.4</ele>
        <time>2016-04-25T17:54:20Z</time>
      </trkpt>
      <trkpt lat="42.8620079" lon="-5.3563528">
        <ele>1227.6</ele>
        <time>2016-04-25T17:54:23Z</time>
      </trkpt>
      <trkpt lat="42.8618929" lon="-5.3564553">
        <ele>1225.8</ele>
        <time>2016-04-25T17:54:25Z</time>
      </trkpt>
      <trkpt lat="42.8617688" lon="-5.3565396">
        <ele>1222.3</ele>
        <time>2016-04-25T17:54:27Z</time>
      </trkpt>
      <trkpt lat="42.8616389" lon="-5.3566403">
        <ele>1218.0</ele>
        <time>2016-04-25T17:54:29Z</time>
      </trkpt>
      <trkpt lat="42.861523" lon="-5.3567547">
        <ele>1214.3</ele>
        <time>2016-04-25T17:54:31Z</time>
      </trkpt>
      <trkpt lat="42.861385" lon="-5.3569503">
        <ele>1208.6</ele>
        <time>2016-04-25T17:54:34Z</time>
      </trkpt>
      <trkpt lat="42.8612629" lon="-5.3571627">
        <ele>1202.2</ele>
        <time>2016-04-25T17:54:37Z</time>
      </trkpt>
      <trkpt lat="42.8611652" lon="-5.3573403">
        <ele>1198.3</ele>
        <time>2016-04-25T17:54:39Z</time>
      </trkpt>
      <trkpt lat="42.8610589" lon="-5.3575598">
        <ele>1193.1</ele>
        <time>2016-04-25T17:54:42Z</time>
      </trkpt>
      <trkpt lat="42.8609587" lon="-5.3577634">
        <ele>1187.6</ele>
        <time>2016-04-25T17:54:46Z</time>
      </trkpt>
      <trkpt lat="42.860878" lon="-5.3579652">
        <ele>1181.5</ele>
        <time>2016-04-25T17:54:49Z</time>
      </trkpt>
      <trkpt lat="42.8608044" lon="-5.3582132">
        <ele>1177.0</ele>
        <time>2016-04-25T17:54:52Z</time>
      </trkpt>
      <trkpt lat="42.860722" lon="-5.3584597">
        <ele>1172.4</ele>
        <time>2016-04-25T17:54:55Z</time>
      </trkpt>
      <trkpt lat="42.8606672" lon="-5.3586685">
        <ele>1168.3</ele>
        <time>2016-04-25T17:54:58Z</time>
      </trkpt>
      <trkpt lat="42.8605842" lon="-5.3588902">
        <ele>1164.1</ele>
        <time>2016-04-25T17:55:01Z</time>
      </trkpt>
      <trkpt lat="42.8604838" lon="-5.3591166">
        <ele>1160.4</ele>
        <time>2016-04-25T17:55:04Z</time>
      </trkpt>
      <trkpt lat="42.8603855" lon="-5.3593281">
        <ele>1156.6</ele>
        <time>2016-04-25T17:55:07Z</time>
      </trkpt>
      <trkpt lat="42.8602771" lon="-5.3595473">
        <ele>1151.7</ele>
        <time>2016-04-25T17:55:10Z</time>
      </trkpt>
      <trkpt lat="42.8601663" lon="-5.3597641">
        <ele>1147.7</ele>
        <time>2016-04-25T17:55:13Z</time>
      </trkpt>
      <trkpt lat="42.8600018" lon="-5.3599269">
        <ele>1144.0</ele>
        <time>2016-04-25T17:55:16Z</time>
      </trkpt>
      <trkpt lat="42.859858" lon="-5.3600157">
        <ele>1141.0</ele>
        <time>2016-04-25T17:55:18Z</time>
      </trkpt>
      <trkpt lat="42.8596827" lon="-5.3599569">
        <ele>1135.5</ele>
        <time>2016-04-25T17:55:20Z</time>
      </trkpt>
      <trkpt lat="42.8595899" lon="-5.3599009">
        <ele>1133.6</ele>
        <time>2016-04-25T17:55:21Z</time>
      </trkpt>
      <trkpt lat="42.8594991" lon="-5.3598503">
        <ele>1133.6</ele>
        <time>2016-04-25T17:55:22Z</time>
      </trkpt>
      <trkpt lat="42.8594157" lon="-5.3597891">
        <ele>1129.7</ele>
        <time>2016-04-25T17:55:23Z</time>
      </trkpt>
      <trkpt lat="42.8592609" lon="-5.3596334">
        <ele>1127.3</ele>
        <time>2016-04-25T17:55:25Z</time>
      </trkpt>
      <trkpt lat="42.859157" lon="-5.359373">
        <ele>1124.0</ele>
        <time>2016-04-25T17:55:27Z</time>
      </trkpt>
      <trkpt lat="42.8591002" lon="-5.3590926">
        <ele>1120.9</ele>
        <time>2016-04-25T17:55:29Z</time>
      </trkpt>
      <trkpt lat="42.8590641" lon="-5.3588296">
        <ele>1117.9</ele>
        <time>2016-04-25T17:55:31Z</time>
      </trkpt>
      <trkpt lat="42.8590035" lon="-5.3585558">
        <ele>1114.3</ele>
        <time>2016-04-25T17:55:33Z</time>
      </trkpt>
      <trkpt lat="42.8588494" lon="-5.3583385">
        <ele>1110.4</ele>
        <time>2016-04-25T17:55:35Z</time>
      </trkpt>
      <trkpt lat="42.8586788" lon="-5.3582095">
        <ele>1106.8</ele>
        <time>2016-04-25T17:55:37Z</time>
      </trkpt>
      <trkpt lat="42.8585332" lon="-5.3580869">
        <ele>1103.5</ele>
        <time>2016-04-25T17:55:39Z</time>
      </trkpt>
      <trkpt lat="42.8583919" lon="-5.3580292">
        <ele>1099.7</ele>
        <time>2016-04-25T17:55:41Z</time>
      </trkpt>
      <trkpt lat="42.8582491" lon="-5.3579412">
        <ele>1095.0</ele>
        <time>2016-04-25T17:55:44Z</time>
      </trkpt>
      <trkpt lat="42.8581942" lon="-5.3579148">
        <ele>1050.3</ele>
        <time>2016-04-25T17:56:34Z</time>
      </trkpt>
      <trkpt lat="42.858116" lon="-5.3578357">
        <ele>1049.7</ele>
        <time>2016-04-25T17:56:43Z</time>
      </trkpt>
      <trkpt lat="42.8580693" lon="-5.3578379">
        <ele>1049.6</ele>
        <time>2016-04-25T17:56:47Z</time>
      </trkpt>
      <trkpt lat="42.8580349" lon="-5.3578805">
        <ele>1046.7</ele>
        <time>2016-04-25T17:58:32Z</time>
      </trkpt>
      <trkpt lat="42.8580024" lon="-5.3578141">
        <ele>1046.8</ele>
        <time>2016-04-25T17:58:36Z</time>
      </trkpt>
      <trkpt lat="42.8580499" lon="-5.357881">
        <ele>1046.7</ele>
        <time>2016-04-25T17:59:10Z</time>
      </trkpt>
      <trkpt lat="42.8580455" lon="-5.3578049">
        <ele>1045.8</ele>
        <time>2016-04-25T17:59:40Z</time>
      </trkpt>
      <trkpt lat="42.8580455" lon="-5.3578049">
        <time>2016-04-25T17:59:41Z</time>
      </trkpt>
    </trkseg>
    <trkseg>
      <trkpt lat="42.8580455" lon="-5.3578049">
        <time>2016-04-25T17:59:47Z</time>
      </trkpt>
    </trkseg>
  </trk>
</gpx>